Details From TIST - St Thomas - Cyril E King
To TBPB - Barbados - Grantley Adams Intl
Flight Number -
Tags Generated
Created
Modified
Stats Distance 447 nm / 829 km
Max Altitude 0 ft / 0 m
Waypoints 3
Social Downloads 1
Likes 0
Share VATSIM

Download

Looking for another format? Having issues loading an existing format? Contact us
Advertisement - Login to hide

Notes

Generated

Route

TIST R1362 TBPB

ID Type Via Altitude Latitude Longitude Leg Dist Tot Dist Heading (true) Name
O TIST APT - 0 ft / 0 m 18.33687˚ -64.98343˚ - 0 nm - -
R1362 FIX - 0 ft / 0 m 13.07091˚ -59.50749˚ 447 nm 447 nm 134° / 136° -
O TBPB APT - 0 ft / 0 m 13.07091˚ -59.50749˚ 0 nm 447 nm 0° / 180° -

Altitude Profile

Advertisement - Login to hide

Weather


0- 5 10 15 20 25 30 35+ Temperature / ° C

Clouds and Precipitation
Forecast for 2017-12-13 06:00 UTC. Updated an hour ago

Ground ~20,000 ft ~40,000 ft Winds

TIST

Details ICAO TIST (STT)
Name St Thomas - Cyril E King
Region USA (U.S. Virgin Islands)
Timezone Unknown (UTC+0.0)
Stats Elevation 23 ft / 7 m (AMSL)
Location 18.337300° -64.973344°
Runways 1
Magnetic Variation 13.636° W

METAR

TIST 130353Z 16006KT 10SM 27/24 A2995

Decode

TAF

TAF TIST 122320Z 1300/1324 VRB05KT P6SM SCT025 FM131430 17007KT P6SM FEW026 FM131800 18005KT P6SM FEW030 FM132200 10005KT P6SM BKN250

Decode

Departure Runways

ID Width Length Bearing (true) Bearing (mag) Surface Threshold Offset Overrun Length
10 151 ft / 46 m 6,992 ft / 2,131 m 87.44° 101.08° Asphalt 0 ft / 0 m 200 ft / 61 m
28 151 ft / 46 m 6,992 ft / 2,131 m 267.44° 281.08° Asphalt 2,300 ft / 701 m 200 ft / 61 m

TBPB

Details ICAO TBPB (BGI)
Name Barbados/Grantley Adams Intl
Region Barbados
Timezone America/Barbados (UTC-4.0)
Stats Elevation 168 ft / 51 m (AMSL)
Location 13.074614° -59.492206°
Runways 1
Magnetic Variation 15.612° W

METAR

TBPB 130400Z 08010KT 9999 SCT018 26/23 Q1014 NOSIG

Decode

TAF

Not found

Destination Runways

ID Width Length Bearing (true) Bearing (mag) Surface Threshold Offset Overrun Length
09 148 ft / 45 m 11,924 ft / 3,635 m 75.84° 91.45° Asphalt 0 ft / 0 m 174 ft / 53 m
27 148 ft / 45 m 11,924 ft / 3,635 m 255.85° 271.46° Asphalt 0 ft / 0 m 0 ft / 0 m

Approach Navaids

Runway Type Ident Frequency Range Bearing (true) Bearing (mag) Slope Elevation
09 Localiser IBGI 110.10 MHz 18 nm / 33 km 75.97° 91.59° - 168 ft / 51 m (AMSL)
09 Glidescope IBGI 110.10 MHz 10 nm / 19 km 75.85° 91.46° 3.00° 168 ft / 51 m (AMSL)

Popular Alternatives